sensor_id;sensor_type;location;lat;lon;timestamp;pressure;altitude;pressure_sealevel;temperature;humidity
8101;BME280;4093;53.470;9.832;2024-02-04T00:00:20;101646.38;;;9.64;81.69
8101;BME280;4093;53.470;9.832;2024-02-04T00:02:48;101657.53;;;9.53;82.63
8101;BME280;4093;53.470;9.832;2024-02-04T00:05:16;101648.09;;;9.55;83.27
8101;BME280;4093;53.470;9.832;2024-02-04T00:07:46;101646.41;;;9.84;82.33
8101;BME280;4093;53.470;9.832;2024-02-04T00:10:14;101635.19;;;9.78;82.01
8101;BME280;4093;53.470;9.832;2024-02-04T00:12:44;101636.06;;;9.80;82.42
8101;BME280;4093;53.470;9.832;2024-02-04T00:15:12;101640.34;;;9.53;83.51
8101;BME280;4093;53.470;9.832;2024-02-04T00:17:39;101642.91;;;9.39;84.60
8101;BME280;4093;53.470;9.832;2024-02-04T00:20:08;101655.88;;;9.68;83.55
8101;BME280;4093;53.470;9.832;2024-02-04T00:22:36;101658.44;;;9.76;82.79
8101;BME280;4093;53.470;9.832;2024-02-04T00:25:05;101664.47;;;9.72;82.96
8101;BME280;4093;53.470;9.832;2024-02-04T00:27:38;101655.84;;;9.55;83.58
8101;BME280;4093;53.470;9.832;2024-02-04T00:30:07;101672.22;;;9.70;83.43
8101;BME280;4093;53.470;9.832;2024-02-04T00:32:35;101669.63;;;9.57;83.81
8101;BME280;4093;53.470;9.832;2024-02-04T00:35:03;101680.00;;;9.81;82.81
8101;BME280;4093;53.470;9.832;2024-02-04T00:37:31;101667.03;;;9.64;83.55
8101;BME280;4093;53.470;9.832;2024-02-04T00:39:59;101662.69;;;9.42;84.38
8101;BME280;4093;53.470;9.832;2024-02-04T00:42:28;101643.69;;;9.03;85.56
8101;BME280;4093;53.470;9.832;2024-02-04T00:44:56;101651.53;;;9.50;84.78
8101;BME280;4093;53.470;9.832;2024-02-04T00:47:23;101648.94;;;9.58;83.78
8101;BME280;4093;53.470;9.832;2024-02-04T00:49:52;101636.84;;;9.22;84.87
8101;BME280;4093;53.470;9.832;2024-02-04T00:52:20;101642.03;;;9.34;84.64
8101;BME280;4093;53.470;9.832;2024-02-04T00:54:48;101624.81;;;9.27;84.35
8101;BME280;4093;53.470;9.832;2024-02-04T00:57:16;101623.13;;;9.55;83.27
8101;BME280;4093;53.470;9.832;2024-02-04T00:59:45;101624.84;;;9.48;83.19
8101;BME280;4093;53.470;9.832;2024-02-04T01:02:12;101613.66;;;9.45;83.67
8101;BME280;4093;53.470;9.832;2024-02-04T01:04:41;101613.69;;;9.43;83.81
8101;BME280;4093;53.470;9.832;2024-02-04T01:07:08;101626.56;;;9.56;83.97
8101;BME280;4093;53.470;9.832;2024-02-04T01:09:36;101626.59;;;9.66;83.33
8101;BME280;4093;53.470;9.832;2024-02-04T01:12:04;101628.34;;;9.90;81.64
8101;BME280;4093;53.470;9.832;2024-02-04T01:14:32;101626.59;;;9.80;82.21
8101;BME280;4093;53.470;9.832;2024-02-04T01:17:02;101626.59;;;9.72;82.48
8101;BME280;4093;53.470;9.832;2024-02-04T01:19:30;101630.03;;;9.81;82.55
8101;BME280;4093;53.470;9.832;2024-02-04T01:21:57;101628.31;;;9.72;82.78
8101;BME280;4093;53.470;9.832;2024-02-04T01:24:26;101640.34;;;9.96;82.69
8101;BME280;4093;53.470;9.832;2024-02-04T01:26:53;101628.31;;;9.96;82.31
8101;BME280;4093;53.470;9.832;2024-02-04T01:29:21;101627.47;;;9.71;83.32
8101;BME280;4093;53.470;9.832;2024-02-04T01:31:49;101624.00;;;9.89;82.10
8101;BME280;4093;53.470;9.832;2024-02-04T01:34:18;101617.13;;;9.71;82.72
8101;BME280;4093;53.470;9.832;2024-02-04T01:36:46;101615.41;;;9.75;82.47
8101;BME280;4093;53.470;9.832;2024-02-04T01:39:14;101625.75;;;9.84;82.65
8101;BME280;4093;53.470;9.832;2024-02-04T01:41:42;101618.84;;;9.65;83.66
8101;BME280;4093;53.470;9.832;2024-02-04T01:44:12;101618.84;;;9.76;83.08
8101;BME280;4093;53.470;9.832;2024-02-04T01:46:40;101606.78;;;9.70;83.08
8101;BME280;4093;53.470;9.832;2024-02-04T01:49:08;101605.94;;;9.80;82.96
8101;BME280;4093;53.470;9.832;2024-02-04T01:51:38;101617.97;;;10.01;82.90
8101;BME280;4093;53.470;9.832;2024-02-04T01:54:05;101624.00;;;10.09;82.18
8101;BME280;4093;53.470;9.832;2024-02-04T01:56:35;101623.16;;;9.93;82.54
8101;BME280;4093;53.470;9.832;2024-02-04T01:59:03;101617.09;;;10.16;81.23
8101;BME280;4093;53.470;9.832;2024-02-04T02:01:31;101607.66;;;9.81;82.06
8101;BME280;4093;53.470;9.832;2024-02-04T02:04:00;101617.97;;;9.95;82.26
8101;BME280;4093;53.470;9.832;2024-02-04T02:06:29;101606.78;;;9.82;82.70
8101;BME280;4093;53.470;9.832;2024-02-04T02:09:01;101596.47;;;9.85;82.41
8101;BME280;4093;53.470;9.832;2024-02-04T02:11:37;101601.59;;;10.14;81.86
8101;BME280;4093;53.470;9.832;2024-02-04T02:14:09;101601.59;;;10.30;81.24
8101;BME280;4093;53.470;9.832;2024-02-04T02:16:38;101610.19;;;10.38;81.28
8101;BME280;4093;53.470;9.832;2024-02-04T02:19:15;101600.72;;;10.14;81.82
8101;BME280;4093;53.470;9.832;2024-02-04T02:21:52;101594.72;;;10.01;81.64
8101;BME280;4093;53.470;9.832;2024-02-04T02:24:32;101587.00;;;9.81;82.53
8101;BME280;4093;53.470;9.832;2024-02-04T02:27:01;101599.88;;;10.06;81.97
8101;BME280;4093;53.470;9.832;2024-02-04T02:29:28;101599.84;;;10.18;80.69
8101;BME280;4093;53.470;9.832;2024-02-04T02:31:56;101586.94;;;10.03;81.56
8101;BME280;4093;53.470;9.832;2024-02-04T02:34:24;101586.06;;;10.24;80.82
8101;BME280;4093;53.470;9.832;2024-02-04T02:37:10;101588.69;;;10.10;80.26
8101;BME280;4093;53.470;9.832;2024-02-04T02:39:46;101573.19;;;10.01;81.30
8101;BME280;4093;53.470;9.832;2024-02-04T02:42:16;101582.63;;;10.23;80.18
8101;BME280;4093;53.470;9.832;2024-02-04T02:44:45;101575.75;;;10.16;80.38
8101;BME280;4093;53.470;9.832;2024-02-04T02:47:14;101562.88;;;9.90;81.71
8101;BME280;4093;53.470;9.832;2024-02-04T02:49:42;101485.47;;;9.27;82.01
8101;BME280;4093;53.470;9.832;2024-02-04T02:52:11;101566.34;;;9.84;82.14
8101;BME280;4093;53.470;9.832;2024-02-04T02:54:40;101561.19;;;9.63;82.49
8101;BME280;4093;53.470;9.832;2024-02-04T02:57:08;101569.75;;;9.92;81.91
8101;BME280;4093;53.470;9.832;2024-02-04T02:59:36;101574.91;;;9.92;81.36
8101;BME280;4093;53.470;9.832;2024-02-04T03:02:04;101564.59;;;9.92;81.37
8101;BME280;4093;53.470;9.832;2024-02-04T03:04:32;101567.16;;;9.99;81.38
8101;BME280;4093;53.470;9.832;2024-02-04T03:07:00;101560.31;;;9.85;81.72
8101;BME280;4093;53.470;9.832;2024-02-04T03:09:28;101549.13;;;9.62;82.39
8101;BME280;4093;53.470;9.832;2024-02-04T03:11:57;101557.72;;;9.79;82.09
8101;BME280;4093;53.470;9.832;2024-02-04T03:14:25;101560.31;;;9.88;81.21
8101;BME280;4093;53.470;9.832;2024-02-04T03:16:53;101556.00;;;9.83;81.66
8101;BME280;4093;53.470;9.832;2024-02-04T03:19:21;101543.09;;;9.67;81.37
8101;BME280;4093;53.470;9.832;2024-02-04T03:21:48;101542.22;;;9.81;81.76
8101;BME280;4093;53.470;9.832;2024-02-04T03:24:16;101543.94;;;9.56;82.16
8101;BME280;4093;53.470;9.832;2024-02-04T03:26:44;101541.38;;;9.66;82.21
8101;BME280;4093;53.470;9.832;2024-02-04T03:29:13;101538.78;;;9.59;82.06
8101;BME280;4093;53.470;9.832;2024-02-04T03:31:41;101537.06;;;9.67;82.82
8101;BME280;4093;53.470;9.832;2024-02-04T03:34:09;101544.81;;;9.67;82.27
8101;BME280;4093;53.470;9.832;2024-02-04T03:36:37;101534.50;;;9.75;81.01
8101;BME280;4093;53.470;9.832;2024-02-04T03:39:05;101532.78;;;9.46;82.94
8101;BME280;4093;53.470;9.832;2024-02-04T03:41:33;101543.97;;;9.69;81.86
8101;BME280;4093;53.470;9.832;2024-02-04T03:44:01;101528.47;;;9.66;81.83
8101;BME280;4093;53.470;9.832;2024-02-04T03:46:30;101527.59;;;9.55;82.01
8101;BME280;4093;53.470;9.832;2024-02-04T03:48:58;101537.06;;;9.76;81.71
8101;BME280;4093;53.470;9.832;2024-02-04T03:51:25;101528.50;;;9.43;82.71
8101;BME280;4093;53.470;9.832;2024-02-04T03:53:53;101531.91;;;9.36;83.49
8101;BME280;4093;53.470;9.832;2024-02-04T03:56:21;101531.91;;;9.61;82.07
8101;BME280;4093;53.470;9.832;2024-02-04T03:58:49;101522.47;;;9.35;83.47
8101;BME280;4093;53.470;9.832;2024-02-04T04:01:17;101535.38;;;9.63;82.57
8101;BME280;4093;53.470;9.832;2024-02-04T04:03:46;101518.16;;;9.42;82.74
8101;BME280;4093;53.470;9.832;2024-02-04T04:06:14;101523.34;;;9.40;83.76
8101;BME280;4093;53.470;9.832;2024-02-04T04:08:42;101535.38;;;9.69;83.02
8101;BME280;4093;53.470;9.832;2024-02-04T04:11:10;101525.91;;;9.19;84.50
8101;BME280;4093;53.470;9.832;2024-02-04T04:13:38;101536.25;;;9.43;84.40
8101;BME280;4093;53.470;9.832;2024-02-04T04:16:06;101531.06;;;9.23;84.75
8101;BME280;4093;53.470;9.832;2024-02-04T04:18:34;101526.75;;;9.07;85.64
8101;BME280;4093;53.470;9.832;2024-02-04T04:21:04;101534.50;;;9.41;84.94
8101;BME280;4093;53.470;9.832;2024-02-04T04:23:32;101525.91;;;9.16;85.94
8101;BME280;4093;53.470;9.832;2024-02-04T04:25:59;101518.16;;;9.25;85.60
8101;BME280;4093;53.470;9.832;2024-02-04T04:28:27;101522.41;;;8.92;86.54
8101;BME280;4093;53.470;9.832;2024-02-04T04:30:55;101539.66;;;9.29;86.50
8101;BME280;4093;53.470;9.832;2024-02-04T04:33:23;101531.91;;;9.27;85.98
8101;BME280;4093;53.470;9.832;2024-02-04T04:35:51;101527.63;;;9.27;85.79
8101;BME280;4093;53.470;9.832;2024-02-04T04:38:20;101517.16;;;8.62;88.06
8101;BME280;4093;53.470;9.832;2024-02-04T04:40:48;101538.81;;;9.22;87.22
8101;BME280;4093;53.470;9.832;2024-02-04T04:43:16;101533.63;;;9.30;85.92
8101;BME280;4093;53.470;9.832;2024-02-04T04:45:44;101537.06;;;8.99;87.52
8101;BME280;4093;53.470;9.832;2024-02-04T04:48:12;101537.06;;;8.99;87.84
8101;BME280;4093;53.470;9.832;2024-02-04T04:50:40;101531.91;;;9.27;86.79
8101;BME280;4093;53.470;9.832;2024-02-04T04:53:08;101529.31;;;9.21;87.45
8101;BME280;4093;53.470;9.832;2024-02-04T04:55:37;101532.75;;;9.34;86.60
8101;BME280;4093;53.470;9.832;2024-02-04T04:58:04;101524.16;;;9.33;86.14
8101;BME280;4093;53.470;9.832;2024-02-04T05:00:32;101529.34;;;9.25;87.78
8101;BME280;4093;53.470;9.832;2024-02-04T05:03:00;101513.84;;;9.12;87.85
8101;BME280;4093;53.470;9.832;2024-02-04T05:05:28;101504.38;;;9.14;87.32
8101;BME280;4093;53.470;9.832;2024-02-04T05:07:56;101506.09;;;9.15;87.23
8101;BME280;4093;53.470;9.832;2024-02-04T05:10:24;101505.25;;;9.10;87.54
8101;BME280;4093;53.470;9.832;2024-02-04T05:12:53;101525.88;;;9.20;86.96
8101;BME280;4093;53.470;9.832;2024-02-04T05:15:21;101511.25;;;9.15;86.97
8101;BME280;4093;53.470;9.832;2024-02-04T05:17:48;101504.38;;;9.11;86.98
8101;BME280;4093;53.470;9.832;2024-02-04T05:20:16;101512.16;;;9.18;86.94
8101;BME280;4093;53.470;9.832;2024-02-04T05:22:44;101501.78;;;8.94;88.00
8101;BME280;4093;53.470;9.832;2024-02-04T05:25:12;101506.97;;;9.08;86.92
8101;BME280;4093;53.470;9.832;2024-02-04T05:27:40;101500.06;;;9.05;86.65
8101;BME280;4093;53.470;9.832;2024-02-04T05:30:11;101502.69;;;9.22;87.05
8101;BME280;4093;53.470;9.832;2024-02-04T05:32:38;101495.78;;;9.01;87.07
8101;BME280;4093;53.470;9.832;2024-02-04T05:35:07;101491.47;;;9.00;87.50
8101;BME280;4093;53.470;9.832;2024-02-04T05:37:35;101498.34;;;8.92;87.45
8101;BME280;4093;53.470;9.832;2024-02-04T05:40:05;101503.53;;;9.07;87.11
8101;BME280;4093;53.470;9.832;2024-02-04T05:42:33;101502.69;;;9.16;87.09
8101;BME280;4093;53.470;9.832;2024-02-04T05:45:02;101494.94;;;9.10;87.07
8101;BME280;4093;53.470;9.832;2024-02-04T05:47:31;101483.72;;;8.86;87.70
8101;BME280;4093;53.470;9.832;2024-02-04T05:49:59;101488.91;;;9.08;87.83
8101;BME280;4093;53.470;9.832;2024-02-04T05:52:27;101501.81;;;9.17;86.27
8101;BME280;4093;53.470;9.832;2024-02-04T05:54:55;101494.06;;;9.20;86.60
8101;BME280;4093;53.470;9.832;2024-02-04T05:57:25;101488.06;;;9.32;85.28
8101;BME280;4093;53.470;9.832;2024-02-04T05:59:53;101487.19;;;9.28;85.21
8101;BME280;4093;53.470;9.832;2024-02-04T06:02:21;101468.25;;;8.98;85.63
8101;BME280;4093;53.470;9.832;2024-02-04T06:04:51;101475.13;;;9.21;86.17
8101;BME280;4093;53.470;9.832;2024-02-04T06:07:19;101482.03;;;9.03;87.06
8101;BME280;4093;53.470;9.832;2024-02-04T06:09:47;101477.72;;;9.10;86.98
8101;BME280;4093;53.470;9.832;2024-02-04T06:12:14;101494.06;;;9.29;86.06
8101;BME280;4093;53.470;9.832;2024-02-04T06:14:42;101476.88;;;9.17;86.11
8101;BME280;4093;53.470;9.832;2024-02-04T06:17:10;101482.88;;;9.24;86.18
8101;BME280;4093;53.470;9.832;2024-02-04T06:19:38;101470.84;;;9.17;85.51
8101;BME280;4093;53.470;9.832;2024-02-04T06:22:07;101457.91;;;8.86;86.89
8101;BME280;4093;53.470;9.832;2024-02-04T06:24:35;101458.81;;;9.19;86.30
8101;BME280;4093;53.470;9.832;2024-02-04T06:27:05;101464.81;;;9.06;86.58
8101;BME280;4093;53.470;9.832;2024-02-04T06:29:33;101451.91;;;8.86;86.68
8101;BME280;4093;53.470;9.832;2024-02-04T06:32:01;101464.81;;;9.09;85.88
8101;BME280;4093;53.470;9.832;2024-02-04T06:34:29;101455.38;;;9.09;85.92
8101;BME280;4093;53.470;9.832;2024-02-04T06:36:57;101453.63;;;8.96;86.33
8101;BME280;4093;53.470;9.832;2024-02-04T06:39:26;101453.66;;;9.22;85.60
8101;BME280;4093;53.470;9.832;2024-02-04T06:41:54;101457.97;;;9.06;86.11
8101;BME280;4093;53.470;9.832;2024-02-04T06:44:22;101472.56;;;9.38;84.68
8101;BME280;4093;53.470;9.832;2024-02-04T06:46:49;101447.63;;;9.11;85.97
8101;BME280;4093;53.470;9.832;2024-02-04T06:49:17;101457.09;;;9.35;84.32
8101;BME280;4093;53.470;9.832;2024-02-04T06:51:46;101457.09;;;9.38;84.64
8101;BME280;4093;53.470;9.832;2024-02-04T06:54:14;101454.50;;;9.27;85.48
8101;BME280;4093;53.470;9.832;2024-02-04T06:56:43;101449.31;;;9.36;84.22
8101;BME280;4093;53.470;9.832;2024-02-04T06:59:11;101439.88;;;9.23;84.91
8101;BME280;4093;53.470;9.832;2024-02-04T07:01:39;101440.75;;;9.22;85.29
8101;BME280;4093;53.470;9.832;2024-02-04T07:04:07;101434.69;;;9.34;84.59
8101;BME280;4093;53.470;9.832;2024-02-04T07:06:35;101427.00;;;9.11;85.20
8101;BME280;4093;53.470;9.832;2024-02-04T07:09:02;101434.69;;;9.47;84.28
8101;BME280;4093;53.470;9.832;2024-02-04T07:11:30;101425.28;;;9.28;84.12
8101;BME280;4093;53.470;9.832;2024-02-04T07:13:59;101427.78;;;9.59;83.63
8101;BME280;4093;53.470;9.832;2024-02-04T07:16:27;101423.53;;;9.24;84.70
8101;BME280;4093;53.470;9.832;2024-02-04T07:18:55;101439.84;;;9.43;83.38
8101;BME280;4093;53.470;9.832;2024-02-04T07:21:23;101453.63;;;9.26;84.61
8101;BME280;4093;53.470;9.832;2024-02-04T07:23:51;101448.47;;;9.30;84.91
8101;BME280;4093;53.470;9.832;2024-02-04T07:26:18;101443.31;;;9.37;84.25
8101;BME280;4093;53.470;9.832;2024-02-04T07:28:46;101434.75;;;9.15;84.82
8101;BME280;4093;53.470;9.832;2024-02-04T07:31:15;101435.59;;;9.25;84.76
8101;BME280;4093;53.470;9.832;2024-02-04T07:33:43;101457.94;;;9.47;83.98
8101;BME280;4093;53.470;9.832;2024-02-04T07:36:11;101433.84;;;9.27;84.68
8101;BME280;4093;53.470;9.832;2024-02-04T07:38:39;101427.81;;;9.36;83.94
8101;BME280;4093;53.470;9.832;2024-02-04T07:41:07;101418.38;;;9.24;84.85
8101;BME280;4093;53.470;9.832;2024-02-04T07:43:35;101422.69;;;9.31;84.19
8101;BME280;4093;53.470;9.832;2024-02-04T07:46:02;101428.69;;;9.36;84.93
8101;BME280;4093;53.470;9.832;2024-02-04T07:48:32;101418.38;;;9.09;85.64
8101;BME280;4093;53.470;9.832;2024-02-04T07:51:00;101417.53;;;9.28;85.30
8101;BME280;4093;53.470;9.832;2024-02-04T07:53:28;101432.09;;;9.66;83.84
8101;BME280;4093;53.470;9.832;2024-02-04T07:55:56;101417.50;;;9.30;84.81
8101;BME280;4093;53.470;9.832;2024-02-04T07:58:24;101408.06;;;9.12;85.37
8101;BME280;4093;53.470;9.832;2024-02-04T08:00:52;101414.94;;;9.28;85.06
8101;BME280;4093;53.470;9.832;2024-02-04T08:03:20;101404.63;;;9.10;86.23
8101;BME280;4093;53.470;9.832;2024-02-04T08:05:49;101411.47;;;9.40;84.36
8101;BME280;4093;53.470;9.832;2024-02-04T08:08:17;101407.16;;;9.42;84.37
8101;BME280;4093;53.470;9.832;2024-02-04T08:10:45;101421.78;;;9.54;84.54
8101;BME280;4093;53.470;9.832;2024-02-04T08:13:13;101422.59;;;9.69;84.00
8101;BME280;4093;53.470;9.832;2024-02-04T08:15:41;101406.25;;;9.61;84.00
8101;BME280;4093;53.470;9.832;2024-02-04T08:18:08;101405.34;;;9.76;83.59
8101;BME280;4093;53.470;9.832;2024-02-04T08:20:36;101421.75;;;9.72;83.53
8101;BME280;4093;53.470;9.832;2024-02-04T08:23:05;101413.19;;;9.56;84.54
8101;BME280;4093;53.470;9.832;2024-02-04T08:25:34;101422.66;;;9.48;84.40
8101;BME280;4093;53.470;9.832;2024-02-04T08:28:03;101418.31;;;9.65;83.85
8101;BME280;4093;53.470;9.832;2024-02-04T08:30:31;101413.16;;;9.52;83.90
8101;BME280;4093;53.470;9.832;2024-02-04T08:32:59;101432.03;;;9.81;83.62
8101;BME280;4093;53.470;9.832;2024-02-04T08:35:26;101370.97;;;9.56;83.39
8101;BME280;4093;53.470;9.832;2024-02-04T08:37:54;101428.50;;;10.05;82.78
8101;BME280;4093;53.470;9.832;2024-02-04T08:40:23;101404.53;;;9.65;84.13
8101;BME280;4093;53.470;9.832;2024-02-04T08:42:51;101424.25;;;9.90;83.12
8101;BME280;4093;53.470;9.832;2024-02-04T08:45:19;101418.22;;;9.88;82.57
8101;BME280;4093;53.470;9.832;2024-02-04T08:47:46;101411.44;;;9.66;83.33
8101;BME280;4093;53.470;9.832;2024-02-04T08:50:14;101424.28;;;9.83;83.39
8101;BME280;4093;53.470;9.832;2024-02-04T08:52:42;101433.75;;;9.82;83.63
8101;BME280;4093;53.470;9.832;2024-02-04T08:55:10;101427.75;;;9.76;83.78
8101;BME280;4093;53.470;9.832;2024-02-04T08:57:39;101420.03;;;9.62;84.80
8101;BME280;4093;53.470;9.832;2024-02-04T09:00:08;101426.75;;;10.06;83.66
8101;BME280;4093;53.470;9.832;2024-02-04T09:02:39;101433.50;;;10.47;81.63
8101;BME280;4093;53.470;9.832;2024-02-04T09:05:07;101412.72;;;10.59;80.34
8101;BME280;4093;53.470;9.832;2024-02-04T09:07:35;101405.94;;;10.39;81.54
8101;BME280;4093;53.470;9.832;2024-02-04T09:10:04;101355.47;;;9.63;83.41
8101;BME280;4093;53.470;9.832;2024-02-04T09:12:31;101370.88;;;9.89;83.26
8101;BME280;4093;53.470;9.832;2024-02-04T09:15:01;101377.75;;;9.92;82.91
8101;BME280;4093;53.470;9.832;2024-02-04T09:17:30;101364.00;;;9.84;83.20
8101;BME280;4093;53.470;9.832;2024-02-04T09:19:59;101383.75;;;9.97;82.84
8101;BME280;4093;53.470;9.832;2024-02-04T09:22:27;101369.16;;;9.87;83.03
8101;BME280;4093;53.470;9.832;2024-02-04T09:24:55;101394.72;;;10.47;81.64
8101;BME280;4093;53.470;9.832;2024-02-04T09:27:23;101375.94;;;10.08;81.27
8101;BME280;4093;53.470;9.832;2024-02-04T09:29:52;101390.41;;;10.42;81.17
8101;BME280;4093;53.470;9.832;2024-02-04T09:32:23;101396.44;;;10.48;81.52
8101;BME280;4093;53.470;9.832;2024-02-04T09:34:51;101390.53;;;10.19;81.33
8101;BME280;4093;53.470;9.832;2024-02-04T09:37:19;101412.75;;;10.53;80.20
8101;BME280;4093;53.470;9.832;2024-02-04T09:39:47;101394.66;;;10.54;80.40
8101;BME280;4093;53.470;9.832;2024-02-04T09:42:19;101393.09;;;10.27;80.69
8101;BME280;4093;53.470;9.832;2024-02-04T09:44:47;101418.06;;;10.25;81.69
8101;BME280;4093;53.470;9.832;2024-02-04T09:47:16;101397.50;;;10.07;82.25
8101;BME280;4093;53.470;9.832;2024-02-04T09:49:46;101411.13;;;10.36;81.66
8101;BME280;4093;53.470;9.832;2024-02-04T09:52:18;101404.28;;;10.28;80.88
8101;BME280;4093;53.470;9.832;2024-02-04T09:54:50;101400.88;;;10.18;81.54
8101;BME280;4093;53.470;9.832;2024-02-04T09:57:18;101400.00;;;10.19;81.52
8101;BME280;4093;53.470;9.832;2024-02-04T09:59:45;101399.03;;;10.45;80.47
8101;BME280;4093;53.470;9.832;2024-02-04T10:02:15;101395.50;;;10.55;79.76
8101;BME280;4093;53.470;9.832;2024-02-04T10:04:49;101396.38;;;10.55;80.58
8101;BME280;4093;53.470;9.832;2024-02-04T10:07:18;101393.09;;;10.21;81.38
8101;BME280;4093;53.470;9.832;2024-02-04T10:09:46;101392.16;;;10.39;80.75
8101;BME280;4093;53.470;9.832;2024-02-04T10:12:15;101373.22;;;10.38;80.50
8101;BME280;4093;53.470;9.832;2024-02-04T10:14:43;101356.91;;;10.29;80.57
8101;BME280;4093;53.470;9.832;2024-02-04T10:17:13;101363.63;;;10.53;79.81
8101;BME280;4093;53.470;9.832;2024-02-04T10:19:42;101353.41;;;10.37;80.59
8101;BME280;4093;53.470;9.832;2024-02-04T10:22:12;101372.97;;;10.75;79.51
8101;BME280;4093;53.470;9.832;2024-02-04T10:24:40;101364.44;;;10.61;80.25
8101;BME280;4093;53.470;9.832;2024-02-04T10:27:10;101355.03;;;10.54;79.79
8101;BME280;4093;53.470;9.832;2024-02-04T10:29:48;101339.47;;;10.57;79.54
8101;BME280;4093;53.470;9.832;2024-02-04T10:32:21;101358.00;;;11.09;77.40
8101;BME280;4093;53.470;9.832;2024-02-04T10:34:49;101337.06;;;10.35;80.79
8101;BME280;4093;53.470;9.832;2024-02-04T10:37:19;101338.69;;;10.47;79.81
8101;BME280;4093;53.470;9.832;2024-02-04T10:39:46;101336.94;;;10.51;80.08
8101;BME280;4093;53.470;9.832;2024-02-04T10:42:15;101340.56;;;10.17;81.61
8101;BME280;4093;53.470;9.832;2024-02-04T10:44:46;101350.78;;;10.45;80.64
8101;BME280;4093;53.470;9.832;2024-02-04T10:47:17;101347.88;;;10.85;78.93
8101;BME280;4093;53.470;9.832;2024-02-04T10:49:51;101327.34;;;10.63;79.11
8101;BME280;4093;53.470;9.832;2024-02-04T10:52:22;101331.59;;;10.72;79.50
8101;BME280;4093;53.470;9.832;2024-02-04T10:54:51;101347.75;;;11.00;78.45
8101;BME280;4093;53.470;9.832;2024-02-04T10:57:20;101344.28;;;11.01;77.97
8101;BME280;4093;53.470;9.832;2024-02-04T10:59:51;101327.19;;;10.83;78.81
8101;BME280;4093;53.470;9.832;2024-02-04T11:02:19;101335.94;;;10.70;79.17
8101;BME280;4093;53.470;9.832;2024-02-04T11:04:48;101338.34;;;10.87;78.87
8101;BME280;4093;53.470;9.832;2024-02-04T11:07:17;101333.22;;;10.85;78.76
8101;BME280;4093;53.470;9.832;2024-02-04T11:09:47;101328.31;;;10.52;79.21
8101;BME280;4093;53.470;9.832;2024-02-04T11:12:18;101335.06;;;10.70;79.67
8101;BME280;4093;53.470;9.832;2024-02-04T11:14:51;101332.19;;;11.03;78.38
8101;BME280;4093;53.470;9.832;2024-02-04T11:17:37;101325.63;;;10.64;80.01
8101;BME280;4093;53.470;9.832;2024-02-04T11:20:21;101289.28;;;10.79;78.62
8101;BME280;4093;53.470;9.832;2024-02-04T11:23:03;101328.06;;;10.82;78.71
8101;BME280;4093;53.470;9.832;2024-02-04T11:25:48;101343.00;;;11.39;76.93
8101;BME280;4093;53.470;9.832;2024-02-04T11:28:18;101313.16;;;11.07;77.93
8101;BME280;4093;53.470;9.832;2024-02-04T11:30:47;101310.44;;;11.18;77.58
8101;BME280;4093;53.470;9.832;2024-02-04T11:33:18;101307.41;;;10.79;79.91
8101;BME280;4093;53.470;9.832;2024-02-04T11:35:46;101272.75;;;10.94;78.22
8101;BME280;4093;53.470;9.832;2024-02-04T11:38:17;101325.81;;;11.33;77.86
8101;BME280;4093;53.470;9.832;2024-02-04T11:40:46;101311.19;;;11.28;77.37
8101;BME280;4093;53.470;9.832;2024-02-04T11:43:14;101316.22;;;11.42;77.92
8101;BME280;4093;53.470;9.832;2024-02-04T11:45:43;101309.56;;;11.21;77.57
8101;BME280;4093;53.470;9.832;2024-02-04T11:48:11;101261.41;;;11.07;78.04
8101;BME280;4093;53.470;9.832;2024-02-04T11:50:39;101307.97;;;11.06;78.12
8101;BME280;4093;53.470;9.832;2024-02-04T11:53:08;101307.13;;;11.07;79.08
8101;BME280;4093;53.470;9.832;2024-02-04T11:55:39;101318.22;;;11.20;78.57
8101;BME280;4093;53.470;9.832;2024-02-04T11:58:12;101299.13;;;11.28;78.28
8101;BME280;4093;53.470;9.832;2024-02-04T12:00:42;101257.31;;;10.86;78.09
8101;BME280;4093;53.470;9.832;2024-02-04T12:03:11;101297.72;;;10.97;79.13
8101;BME280;4093;53.470;9.832;2024-02-04T12:05:39;101294.78;;;11.30;77.65
8101;BME280;4093;53.470;9.832;2024-02-04T12:08:08;101299.09;;;11.30;77.50
8101;BME280;4093;53.470;9.832;2024-02-04T12:10:36;101288.34;;;10.86;78.90
8101;BME280;4093;53.470;9.832;2024-02-04T12:13:05;101298.38;;;11.17;77.46
8101;BME280;4093;53.470;9.832;2024-02-04T12:15:36;101305.94;;;11.35;78.47
8101;BME280;4093;53.470;9.832;2024-02-04T12:18:06;101278.53;;;11.18;78.24
8101;BME280;4093;53.470;9.832;2024-02-04T12:20:35;101303.06;;;11.58;76.89
8101;BME280;4093;53.470;9.832;2024-02-04T12:23:04;101240.53;;;11.23;76.93
8101;BME280;4093;53.470;9.832;2024-02-04T12:29:19;101287.78;;;11.39;77.91
8101;BME280;4093;53.470;9.832;2024-02-04T12:31:48;101263.00;;;11.19;77.69
8101;BME280;4093;53.470;9.832;2024-02-04T12:34:25;101279.56;;;11.00;78.34
8101;BME280;4093;53.470;9.832;2024-02-04T12:36:57;101296.31;;;11.47;77.04
8101;BME280;4093;53.470;9.832;2024-02-04T12:39:26;101308.28;;;11.57;76.45
8101;BME280;4093;53.470;9.832;2024-02-04T12:41:54;101298.75;;;11.59;77.70
8101;BME280;4093;53.470;9.832;2024-02-04T12:44:22;101286.28;;;11.19;78.93
8101;BME280;4093;53.470;9.832;2024-02-04T12:46:51;101282.88;;;11.14;78.42
8101;BME280;4093;53.470;9.832;2024-02-04T12:49:20;101282.06;;;11.10;79.44
8101;BME280;4093;53.470;9.832;2024-02-04T12:51:49;101287.16;;;11.18;78.39
8101;BME280;4093;53.470;9.832;2024-02-04T12:54:18;101285.66;;;11.70;76.39
8101;BME280;4093;53.470;9.832;2024-02-04T12:56:47;101295.00;;;11.81;76.12
8101;BME280;4093;53.470;9.832;2024-02-04T12:59:26;101271.69;;;11.12;78.75
8101;BME280;4093;53.470;9.832;2024-02-04T13:01:56;101292.19;;;11.30;78.12
8101;BME280;4093;53.470;9.832;2024-02-04T13:04:24;101281.81;;;11.30;77.94
8101;BME280;4093;53.470;9.832;2024-02-04T13:06:52;101284.91;;;11.63;76.90
8101;BME280;4093;53.470;9.832;2024-02-04T13:09:20;101287.75;;;11.42;77.82
8101;BME280;4093;53.470;9.832;2024-02-04T13:11:49;101277.53;;;11.28;78.11
8101;BME280;4093;53.470;9.832;2024-02-04T13:14:17;101221.72;;;11.07;78.23
8101;BME280;4093;53.470;9.832;2024-02-04T13:16:45;101287.72;;;11.45;78.55
8101;BME280;4093;53.470;9.832;2024-02-04T13:19:16;101274.69;;;11.51;77.17
8101;BME280;4093;53.470;9.832;2024-02-04T13:21:44;101290.47;;;11.99;76.01
8101;BME280;4093;53.470;9.832;2024-02-04T13:24:11;101269.34;;;11.63;77.76
8101;BME280;4093;53.470;9.832;2024-02-04T13:26:39;101262.63;;;11.48;77.65
8101;BME280;4093;53.470;9.832;2024-02-04T13:29:08;101270.25;;;11.59;77.63